• Join FlightAware (Why Join?)
  • Login
  • US Flag 
05:03AM EDT


 

Airport Tracker/Info


-or-


 

Live Flight TrackerFlight Track Log ✈ SWA1096 ✈ 18-Apr-2013 ✈ KLAS - KSLC

Flight Track Log - Related Links

Times and Time Zones

All times are in EDT time to prevent confusion due to time zone crossing. See the SWA1096 flight status page for this flight to view local times or setup timezone preferences in your user account.

Time Position Orientation Groundspeed Altitude Reporting Facility
EDT Latitude Longitude Course Direction KTS MPH feet Rate Location/Type
09:11AM 36.1047 -115.1508 90° East 144 166 3,900  Level Los Angeles Center
09:12AM 36.1333 -115.0933 58° Northeast 221 254 6,600 2,460 Climbing Los Angeles Center
09:13AM 36.1358 -115.0675 83° East 225 259 7,300 3,300 Climbing Los Angeles Center
09:14AM 36.1439 -114.9753 84° East 262 302 10,800 3,360 Climbing Los Angeles Center
09:15AM 36.1547 -114.8658 83° East 308 354 14,200 3,540 Climbing Los Angeles Center
09:16AM 36.1756 -114.7497 77° East 341 392 18,000 3,240 Climbing Los Angeles Center
09:17AM 36.1834 -114.4548 90° East  Level FlightAware Approximate
09:17AM 36.1906 -114.6228 82° East 372 428 20,800  Level Los Angeles Center
09:18AM 36.2125 -114.4950 78° East 392 451 23,000 1,620 Climbing Los Angeles Center
09:19AM 36.2964 -114.4331 31° Northeast 357 411 24,100 1,920 Climbing Los Angeles Center
09:20AM 36.3881 -114.3719 28° Northeast 369 425 26,900 3,000 Climbing Los Angeles Center
09:21AM 36.4808 -114.3094 28° Northeast 378 435 30,200 2,940 Climbing Los Angeles Center
09:22AM 36.5719 -114.2492 28° Northeast 372 428 32,900 1,320 Climbing Los Angeles Center
09:23AM 36.6586 -114.1917 28° Northeast 372 428 33,000  Climbing Los Angeles Center
09:24AM 36.7681 -114.1167 29° Northeast 375 432 33,000  Level Los Angeles Center
09:25AM 36.8447 -114.0642 29° Northeast 370 426 33,000  Level Los Angeles Center
09:26AM 36.9353 -114.0028 28° Northeast 371 427 33,000  Level Los Angeles Center
09:27AM 37.0256 -113.9414 28° Northeast 369 425 33,000  Level Los Angeles Center
09:28AM 37.1308 -113.8697 28° Northeast 373 429 33,000  Level Los Angeles Center
09:29AM 37.2231 -113.8075 28° Northeast 375 432 33,000  Level Los Angeles Center
09:30AM 37.3147 -113.7439 29° Northeast 376 433 33,000  Level Los Angeles Center
09:31AM 37.4236 -113.6664 29° Northeast 376 433 33,000  Level Salt Lake Center
09:32AM 37.5158 -113.6047 28° Northeast 375 432 33,000  Level Salt Lake Center
09:33AM 37.6094 -113.5408 28° Northeast 379 436 33,000  Level Salt Lake Center
09:34AM 37.7025 -113.4761 29° Northeast 379 436 33,000  Level Salt Lake Center
09:35AM 37.7950 -113.4122 29° Northeast 378 435 33,000 -360 Level Salt Lake Center
09:36AM 37.8878 -113.3478 29° Northeast 377 434 32,300 -540 Descending Salt Lake Center
09:37AM 37.9789 -113.2836 29° Northeast 374 430 32,000 -180 Descending Salt Lake Center
09:38AM 38.0689 -113.2208 29° Northeast 370 426 32,000  Level Salt Lake Center
09:39AM 38.1600 -113.1564 29° Northeast 371 427 32,000  Level Salt Lake Center
09:40AM 38.2500 -113.0933 29° Northeast 370 426 32,000  Level Salt Lake Center
09:41AM 38.3394 -113.0283 30° Northeast 370 426 32,000  Level Salt Lake Center
09:42AM 38.4325 -112.9747 24° Northeast 368 423 32,000  Level Salt Lake Center
09:43AM 38.5450 -112.9172 22° Northeast 364 419 32,000  Level Salt Lake Center
09:44AM 38.6381 -112.8669 23° Northeast 364 419 32,000  Level Salt Lake Center
09:45AM 38.7294 -112.8169 23° Northeast 359 413 32,000  Level Salt Lake Center
09:46AM 38.8192 -112.7678 23° Northeast 353 406 32,000  Level Salt Lake Center
09:47AM 38.9100 -112.7197 22° Northeast 352 405 32,000  Level Salt Lake Center
09:48AM 38.9992 -112.6700 23° Northeast 350 403 32,000  Level Salt Lake Center
09:49AM 39.0892 -112.6225 22° Northeast 350 403 32,000  Level Salt Lake Center
09:50AM 39.1781 -112.5739 23° Northeast 349 402 32,000  Level Salt Lake Center
09:51AM 39.2794 -112.5183 23° Northeast 348 400 32,000 -600 Level Salt Lake Center
09:52AM 39.3689 -112.4689 23° Northeast 350 403 30,800 -1,920 Descending Salt Lake Center
09:53AM 39.4558 -112.4181 24° Northeast 345 397 28,100 -2,400 Descending Salt Lake Center
09:54AM 39.5403 -112.3700 24° Northeast 337 388 26,000 -2,100 Descending Salt Lake Center
09:55AM 39.6208 -112.3236 24° Northeast 321 369 23,900 -1,980 Descending Salt Lake Center
09:56AM 39.6969 -112.2786 24° Northeast 304 350 22,000 -1,860 Descending Salt Lake Center
09:58AM 39.7708 -112.2358 24° Northeast 294 338 20,100 -1,860 Descending Salt Lake Center
09:59AM 39.8458 -112.1919 24° Northeast 295 339 18,200 -2,100 Descending Salt Lake Center
10:00AM 39.9339 -112.1392 25° Northeast 291 335 15,900 -1,620 Descending Salt Lake Center
10:01AM 40.0061 -112.0972 24° Northeast 285 328 15,000 -600 Descending Salt Lake Center
10:01AM 40.0356 -112.0872 15° North 285 328 15,000 -240 Level Salt Lake Center
10:02AM 40.0769 -112.0536 32° Northeast 283 326 14,800 -780 Descending Salt Lake Center
10:02AM 40.1203 -112.0364 17° North 282 325 14,200 -1,020 Descending Salt Lake Center
10:03AM 40.1492 -112.0111 34° Northeast 285 328 13,800 -900 Descending Salt Lake Center
10:03AM 40.1914 -111.9931 18° North 285 328 13,300 -1,020 Descending Salt Lake Center
10:04AM 40.2208 -111.9686 32° Northeast 282 325 12,800 -1,140 Descending Salt Lake Center
10:04AM 40.2553 -111.9572 14° North 283 326 12,300 -1,140 Descending Salt Lake Center
10:05AM 40.2939 -111.9492 North 275 316 11,700 -1,320 Descending Salt Lake Center
10:05AM 40.3306 -111.9572 350° North 267 307 11,000 -1,260 Descending Salt Lake Center
10:06AM 40.3669 -111.9547 North 265 305 10,400 -960 Descending Salt Lake Center
10:07AM 40.4358 -111.9558 359° North 250 288 9,500 -660 Descending Salt Lake Center
10:07AM 40.4808 -111.9656 351° North 252 290 9,400 -300 Descending Salt Lake Center
10:08AM 40.5047 -111.9633 North 249 287 9,200 -1,440 Descending Salt Lake Center
10:09AM 40.5900 -111.9733 355° North 256 295 7,200 -1,860 Descending Salt Lake Center
10:09AM 40.6064 -111.9794 344° North 257 296 6,800 -540 Descending Salt Lake Center
10:10AM 40.6578 -111.9811 359° North 243 280 6,700 -420 Descending Salt Lake Center
10:10AM 40.6675 -111.9842 347° North 209 241 6,400 -1,020 Descending Salt Lake Center
10:11AM 40.7033 -111.9864 357° North 171 197 5,700 -900 Descending Salt Lake Center
10:11AM 40.7142 -111.9908 343° North 153 176 5,500 -720 Descending Salt Lake Center
10:12AM 40.7397 -111.9906 360° North 136 157 5,000 -720 Descending Salt Lake Center
10:13AM 40.7753 -111.9950 355° North 129 148 4,300 -720 Descending Salt Lake Center
10:15AM 40.7833 -111.9667 North  Level FlightAware Approximate